Time;durP1;ratioP1;P1;durP2;ratioP2;P2;SDS_P1;SDS_P2;PMS_P1;PMS_P2;Temp;Humidity;BMP_temperature;BMP_pressure;BME280_temperature;BME280_humidity;BME280_pressure;Samples;Min_cycle;Max_cycle;Signal;HPM_P1;HPM_P2
2022/09/28 00:00:40;;;;;;;1.70;0.80;;;;;;;10.05;100.00;98508.47;5017884;28;20770;-74
2022/09/28 00:03:05;;;;;;;2.70;0.87;;;;;;;10.07;100.00;98503.22;5027066;28;20266;-75
2022/09/28 00:05:31;;;;;;;1.60;0.93;;;;;;;10.04;100.00;98504.19;5017721;28;20290;-75
2022/09/28 00:07:57;;;;;;;1.90;0.80;;;;;;;10.05;100.00;98499.84;5029386;28;20211;-75
2022/09/28 00:10:22;;;;;;;2.20;0.90;;;;;;;10.07;100.00;98493.72;5021247;28;20184;-75
2022/09/28 00:12:51;;;;;;;1.87;1.00;;;;;;;10.06;100.00;98484.28;5018734;28;20190;-74
2022/09/28 00:15:17;;;;;;;1.83;0.90;;;;;;;10.03;100.00;98484.41;5023172;28;20184;-75
2022/09/28 00:17:46;;;;;;;2.33;1.20;;;;;;;10.04;100.00;98468.00;5019467;28;20282;-74
2022/09/28 00:20:11;;;;;;;3.20;0.90;;;;;;;10.03;100.00;98468.03;5013552;28;20667;-74
2022/09/28 00:22:37;;;;;;;3.30;1.10;;;;;;;10.00;100.00;98461.25;5013359;28;20187;-75
2022/09/28 00:25:04;;;;;;;2.63;1.10;;;;;;;9.99;100.00;98459.56;5018541;28;20199;-74
2022/09/28 00:27:29;;;;;;;4.03;1.10;;;;;;;9.93;100.00;98466.69;5015776;28;20209;-74
2022/09/28 00:29:54;;;;;;;1.90;0.90;;;;;;;9.88;100.00;98462.53;5009915;28;20195;-75
2022/09/28 00:32:23;;;;;;;2.37;1.10;;;;;;;9.89;100.00;98447.88;5012919;28;20196;-75
2022/09/28 00:34:49;;;;;;;2.30;1.13;;;;;;;9.90;100.00;98444.41;5019539;28;20195;-74
2022/09/28 00:37:15;;;;;;;1.30;0.80;;;;;;;9.89;100.00;98440.13;5016711;28;20220;-74
2022/09/28 00:39:41;;;;;;;1.07;0.80;;;;;;;9.89;100.00;98434.97;5017108;28;20267;-74
2022/09/28 00:42:13;;;;;;;1.80;0.97;;;;;;;9.91;100.00;98422.81;5016372;28;20253;-74
2022/09/28 00:44:47;;;;;;;1.37;0.80;;;;;;;9.92;100.00;98421.91;5018320;28;22104;-74
2022/09/28 00:47:18;;;;;;;1.90;0.87;;;;;;;9.94;100.00;98424.44;5017456;28;20207;-74
2022/09/28 00:49:49;;;;;;;2.47;0.90;;;;;;;9.97;100.00;98414.00;5014632;28;20196;-75
2022/09/28 00:52:20;;;;;;;1.43;0.73;;;;;;;10.00;100.00;98409.56;5015728;28;20214;-75
2022/09/28 00:54:46;;;;;;;1.47;0.80;;;;;;;10.02;100.00;98402.59;5013957;28;20322;-75
2022/09/28 00:57:13;;;;;;;1.90;1.00;;;;;;;10.03;100.00;98393.97;5019189;28;20222;-76
2022/09/28 00:59:39;;;;;;;3.53;0.90;;;;;;;10.07;100.00;98398.09;5016435;28;20187;-75
2022/09/28 01:02:05;;;;;;;2.17;1.10;;;;;;;10.09;100.00;98376.50;5010280;28;20195;-75
2022/09/28 01:04:30;;;;;;;2.43;1.17;;;;;;;10.11;100.00;98380.75;5019362;28;20196;-74
2022/09/28 01:06:57;;;;;;;2.00;1.00;;;;;;;10.16;100.00;98370.22;5018393;28;20204;-75
2022/09/28 01:09:24;;;;;;;2.00;1.10;;;;;;;10.20;100.00;98366.63;5018733;28;20192;-75
2022/09/28 01:11:50;;;;;;;3.50;1.20;;;;;;;10.21;100.00;98363.13;5013091;28;20518;-75
2022/09/28 01:14:16;;;;;;;2.57;1.30;;;;;;;10.21;100.00;98360.53;5018215;28;20191;-75
2022/09/28 01:17:10;;;;;;;3.10;1.63;;;;;;;10.21;100.00;98351.03;5015589;28;20243;-74
2022/09/28 01:19:44;;;;;;;2.97;1.30;;;;;;;10.23;100.00;98350.97;5012865;28;20644;-75
2022/09/28 01:22:28;;;;;;;2.37;1.27;;;;;;;10.31;100.00;98348.09;5019768;28;20857;-75
2022/09/28 01:25:09;;;;;;;3.63;1.57;;;;;;;10.32;100.00;98347.19;5024743;28;20181;-74
2022/09/28 01:27:38;;;;;;;3.40;1.43;;;;;;;10.35;100.00;98337.59;5027275;28;20771;-75
2022/09/28 01:30:14;;;;;;;2.63;1.10;;;;;;;10.36;100.00;98339.25;5011685;28;20187;-75
2022/09/28 01:33:02;;;;;;;3.17;1.20;;;;;;;10.40;100.00;98334.84;5020029;28;20194;-75
2022/09/28 01:35:43;;;;;;;4.40;1.40;;;;;;;10.41;100.00;98340.84;5015649;28;20221;-74
2022/09/28 01:38:16;;;;;;;4.73;1.60;;;;;;;10.42;100.00;98345.13;5026388;28;20211;-75
2022/09/28 01:40:43;;;;;;;5.23;1.67;;;;;;;10.42;100.00;98337.38;5023468;28;20219;-75
2022/09/28 01:43:14;;;;;;;5.30;2.17;;;;;;;10.40;100.00;98328.81;5022040;28;20191;-75
2022/09/28 01:45:46;;;;;;;5.13;1.97;;;;;;;10.42;100.00;98327.03;5019891;28;20195;-75
2022/09/28 01:48:18;;;;;;;4.87;1.97;;;;;;;10.44;100.00;98320.88;5014529;28;20179;-74
2022/09/28 01:50:45;;;;;;;3.80;1.67;;;;;;;10.42;100.00;98316.69;5015503;28;20184;-75
2022/09/28 01:53:27;;;;;;;4.13;1.90;;;;;;;10.38;100.00;98313.38;5018859;28;20210;-76
2022/09/28 01:55:56;;;;;;;3.63;1.70;;;;;;;10.35;100.00;98319.50;5017183;28;20605;-75
2022/09/28 01:58:35;;;;;;;3.67;1.90;;;;;;;10.33;100.00;98312.69;5017633;28;20199;-75
2022/09/28 02:01:15;;;;;;;6.07;2.20;;;;;;;10.34;100.00;98309.19;5019069;28;20245;-75
2022/09/28 02:03:50;;;;;;;4.80;2.10;;;;;;;10.35;100.00;98301.41;5013411;28;20278;-74
2022/09/28 02:06:21;;;;;;;3.47;2.20;;;;;;;10.33;100.00;98310.09;5016611;28;20585;-75
2022/09/28 02:08:56;;;;;;;7.77;2.40;;;;;;;10.34;100.00;98309.19;5019096;28;20648;-75
2022/09/28 02:11:22;;;;;;;3.77;1.90;;;;;;;10.32;100.00;98304.09;5015388;28;20179;-76
2022/09/28 02:14:08;;;;;;;4.03;1.83;;;;;;;10.35;100.00;98303.13;5014071;28;20573;-75
2022/09/28 02:16:47;;;;;;;3.73;1.70;;;;;;;10.35;100.00;98293.63;5014332;28;20220;-75
2022/09/28 02:19:40;;;;;;;3.17;1.87;;;;;;;10.34;100.00;98299.72;5016459;28;20270;-74
2022/09/28 02:22:29;;;;;;;3.80;1.87;;;;;;;10.32;100.00;98322.19;5017356;28;20211;-75
2022/09/28 02:25:02;;;;;;;3.27;1.80;;;;;;;10.31;100.00;98348.94;5023434;28;20735;-76
2022/09/28 02:27:33;;;;;;;3.90;1.97;;;;;;;10.35;100.00;98326.41;5023577;28;20249;-75
2022/09/28 02:29:59;;;;;;;2.70;1.30;;;;;;;10.31;100.00;98338.59;5013140;28;21747;-75
2022/09/28 02:32:27;;;;;;;1.83;0.90;;;;;;;10.28;100.00;98335.31;5011978;28;20269;-76
2022/09/28 02:34:54;;;;;;;2.07;1.00;;;;;;;10.22;100.00;98338.94;5014719;28;20242;-75
2022/09/28 02:37:20;;;;;;;1.13;0.70;;;;;;;10.18;100.00;98332.25;5013590;28;21082;-75
2022/09/28 02:39:45;;;;;;;1.23;0.67;;;;;;;10.17;100.00;98327.97;5012485;28;20192;-75
2022/09/28 02:42:18;;;;;;;1.47;0.60;;;;;;;10.14;100.00;98335.84;5015784;28;20274;-75
2022/09/28 02:45:08;;;;;;;1.07;0.63;;;;;;;10.11;100.00;98341.97;5014096;28;20249;-75
2022/09/28 02:47:48;;;;;;;2.83;0.77;;;;;;;10.10;100.00;98332.53;5017264;28;20215;-75
2022/09/28 02:50:28;;;;;;;1.33;0.63;;;;;;;10.07;100.00;98328.31;5020537;28;20211;-75
2022/09/28 02:53:25;;;;;;;1.53;0.70;;;;;;;10.06;100.00;98331.78;5021501;28;20200;-75
2022/09/28 02:56:21;;;;;;;3.40;0.90;;;;;;;10.05;100.00;98326.69;5016424;28;20214;-75
2022/09/28 02:58:57;;;;;;;1.43;0.90;;;;;;;10.02;100.00;98338.00;5025582;28;20304;-75
2022/09/28 03:01:41;;;;;;;1.30;0.70;;;;;;;10.01;100.00;98338.03;5014143;28;20283;-75
2022/09/28 03:04:20;;;;;;;1.73;1.43;;;;;;;10.00;100.00;98337.22;5016747;28;20761;-75
2022/09/28 03:06:59;;;;;;;2.43;2.23;;;;;;;9.98;100.00;98327.84;5023271;28;20356;-76
2022/09/28 03:09:51;;;;;;;1.60;1.50;;;;;;;9.98;100.00;98328.66;5029063;28;20449;-75
2022/09/28 03:12:19;;;;;;;1.63;1.40;;;;;;;9.98;100.00;98323.50;5021491;28;20274;-75
2022/09/28 03:14:44;;;;;;;2.10;1.50;;;;;;;9.97;100.00;98334.72;5022234;28;20180;-75
2022/09/28 03:17:09;;;;;;;1.00;0.83;;;;;;;9.96;100.00;98333.06;5025629;28;20301;-75
2022/09/28 03:19:35;;;;;;;1.43;0.87;;;;;;;9.97;100.00;98331.31;5022417;28;20626;-75
2022/09/28 03:22:01;;;;;;;0.83;0.80;;;;;;;9.97;100.00;98332.16;5023598;28;20188;-76
2022/09/28 03:24:27;;;;;;;1.87;0.97;;;;;;;9.97;100.00;98326.97;5024315;28;20215;-75
2022/09/28 03:26:52;;;;;;;2.20;0.90;;;;;;;9.96;100.00;98322.72;5026905;28;20212;-76
2022/09/28 03:29:19;;;;;;;1.07;0.73;;;;;;;9.96;100.00;98330.47;5018571;28;20531;-74
2022/09/28 03:31:45;;;;;;;2.37;0.90;;;;;;;9.97;100.00;98339.06;5014557;28;20192;-75
2022/09/28 03:34:10;;;;;;;2.00;0.97;;;;;;;9.96;100.00;98333.06;5013584;28;20187;-75
2022/09/28 03:36:36;;;;;;;1.83;1.10;;;;;;;9.95;100.00;98328.78;5008996;28;20211;-75
2022/09/28 03:39:01;;;;;;;1.27;0.87;;;;;;;9.93;100.00;98328.00;5014409;28;20211;-74
2022/09/28 03:41:26;;;;;;;1.87;0.90;;;;;;;9.91;100.00;98325.47;5020104;28;20290;-75
2022/09/28 03:43:52;;;;;;;2.03;0.80;;;;;;;9.90;100.00;98322.97;5015465;28;20223;-75
2022/09/28 03:46:18;;;;;;;1.67;0.97;;;;;;;9.87;100.00;98326.47;5018481;28;20211;-74
2022/09/28 03:48:43;;;;;;;1.77;0.90;;;;;;;9.86;100.00;98327.38;5017667;28;20186;-75
2022/09/28 03:51:09;;;;;;;2.77;1.10;;;;;;;9.86;100.00;98322.22;5015827;28;20204;-75
2022/09/28 03:53:35;;;;;;;1.80;1.00;;;;;;;9.86;100.00;98324.78;5016601;28;20664;-75
2022/09/28 03:56:07;;;;;;;2.57;1.30;;;;;;;9.85;100.00;98322.28;5020315;28;20346;-75
2022/09/28 03:58:32;;;;;;;1.77;1.10;;;;;;;9.86;100.00;98321.38;5009873;28;20219;-75
2022/09/28 04:01:06;;;;;;;1.87;1.20;;;;;;;9.86;100.00;98317.03;5018703;28;20196;-76
2022/09/28 04:03:32;;;;;;;1.47;1.30;;;;;;;9.84;100.00;98313.69;5017270;28;20303;-75
2022/09/28 04:05:58;;;;;;;3.40;1.40;;;;;;;9.83;100.00;98319.75;5020081;28;20282;-75
2022/09/28 04:08:24;;;;;;;1.70;1.10;;;;;;;9.83;100.00;98324.91;5024665;28;20266;-75
2022/09/28 04:10:49;;;;;;;2.20;1.10;;;;;;;9.83;100.00;98327.50;5024560;28;20187;-74
2022/09/28 04:13:14;;;;;;;1.60;1.13;;;;;;;9.83;100.00;98326.66;5020886;28;20199;-76
2022/09/28 04:15:40;;;;;;;3.47;2.70;;;;;;;9.84;100.00;98320.59;5019028;28;20211;-75
2022/09/28 04:18:10;;;;;;;3.53;2.57;;;;;;;9.84;100.00;98321.44;5016027;28;20211;-76
2022/09/28 04:20:35;;;;;;;2.67;2.10;;;;;;;9.85;100.00;98328.28;5024730;28;20179;-75
2022/09/28 04:23:01;;;;;;;2.53;2.10;;;;;;;9.85;100.00;98323.13;5027014;28;20270;-74
2022/09/28 04:25:26;;;;;;;2.07;1.83;;;;;;;9.86;100.00;98319.63;5025759;28;20191;-75
2022/09/28 04:30:35;;;;;;;3.30;1.37;;;;;;;9.92;100.00;98328.88;5013126;28;20261;-75
2022/09/28 04:33:01;;;;;;;1.33;1.10;;;;;;;9.93;100.00;98338.31;5016363;28;20594;-75
2022/09/28 04:35:26;;;;;;;2.63;1.70;;;;;;;9.95;100.00;98343.47;5024028;28;20602;-75
2022/09/28 04:37:52;;;;;;;2.77;1.70;;;;;;;9.94;100.00;98337.44;5024126;28;20211;-75
2022/09/28 04:40:17;;;;;;;3.30;2.30;;;;;;;9.97;100.00;98346.81;5028148;28;20275;-75
2022/09/28 04:42:42;;;;;;;3.57;2.27;;;;;;;9.97;100.00;98345.06;5009742;28;20188;-75
2022/09/28 04:45:08;;;;;;;4.10;2.97;;;;;;;9.96;100.00;98339.97;5028689;28;20194;-75
2022/09/28 04:47:34;;;;;;;4.50;2.20;;;;;;;9.94;100.00;98334.03;5024042;28;20207;-75
2022/09/28 04:49:59;;;;;;;3.50;2.20;;;;;;;9.92;100.00;98334.06;5014795;28;20193;-75
2022/09/28 04:52:25;;;;;;;7.90;6.90;;;;;;;9.89;100.00;98337.59;5013782;28;20306;-75
2022/09/28 04:54:50;;;;;;;9.40;8.60;;;;;;;9.88;100.00;98332.50;5025777;28;20196;-75
2022/09/28 04:57:16;;;;;;;37.77;33.67;;;;;;;9.87;100.00;98326.47;5014701;28;20572;-75
2022/09/28 04:59:41;;;;;;;32.03;29.03;;;;;;;9.89;100.00;98337.59;5017882;28;20184;-75
2022/09/28 05:02:06;;;;;;;21.17;19.17;;;;;;;9.89;100.00;98335.03;5018884;28;20279;-75
2022/09/28 05:04:32;;;;;;;11.93;10.77;;;;;;;9.89;100.00;98340.19;5020936;28;20205;-75
2022/09/28 05:06:57;;;;;;;6.90;6.23;;;;;;;9.87;100.00;98334.22;5026724;28;20223;-75
2022/09/28 05:09:22;;;;;;;6.37;5.50;;;;;;;9.88;100.00;98342.84;5013893;28;20271;-74
2022/09/28 05:11:49;;;;;;;4.23;3.47;;;;;;;9.88;100.00;98348.84;5020533;28;20290;-74
2022/09/28 05:14:18;;;;;;;3.47;3.03;;;;;;;9.87;100.00;98349.75;5016819;28;20190;-74
2022/09/28 05:16:44;;;;;;;3.93;2.30;;;;;;;9.88;100.00;98353.19;5012154;28;20223;-74
2022/09/28 05:19:10;;;;;;;2.67;2.23;;;;;;;9.88;100.00;98356.59;5019937;28;20220;-75
2022/09/28 05:21:35;;;;;;;3.47;2.63;;;;;;;9.87;100.00;98361.81;5017614;28;20192;-75
2022/09/28 05:24:06;;;;;;;3.23;2.50;;;;;;;9.87;100.00;98362.66;5016778;28;20194;-74
2022/09/28 05:26:31;;;;;;;3.23;2.37;;;;;;;9.87;100.00;98365.25;5014154;28;20343;-75
2022/09/28 05:28:56;;;;;;;2.67;2.47;;;;;;;9.89;100.00;98378.94;5010236;28;20183;-75
2022/09/28 05:31:21;;;;;;;3.27;2.20;;;;;;;9.91;100.00;98372.00;5011661;28;20255;-75
2022/09/28 05:33:47;;;;;;;3.10;1.87;;;;;;;9.94;100.00;98375.34;5010316;28;20196;-75
2022/09/28 05:36:13;;;;;;;3.17;1.97;;;;;;;9.97;100.00;98377.84;5020811;28;20698;-75
2022/09/28 05:38:38;;;;;;;2.93;2.10;;;;;;;9.99;100.00;98378.59;5020381;28;20234;-75
2022/09/28 05:41:03;;;;;;;2.93;1.70;;;;;;;10.00;100.00;98380.28;5027583;28;20207;-75
2022/09/28 05:43:29;;;;;;;3.13;1.70;;;;;;;10.01;100.00;98382.81;5009811;28;20278;-75
2022/09/28 05:45:54;;;;;;;2.60;2.20;;;;;;;10.03;100.00;98383.63;5025850;28;20191;-75
2022/09/28 05:48:20;;;;;;;2.70;2.37;;;;;;;10.05;100.00;98388.72;5022134;28;20207;-75
2022/09/28 05:50:52;;;;;;;2.93;2.40;;;;;;;10.06;100.00;98383.47;5027326;28;20202;-75
2022/09/28 05:53:17;;;;;;;2.73;2.20;;;;;;;10.08;100.00;98386.03;5028384;28;20611;-75
2022/09/28 05:55:43;;;;;;;2.43;2.23;;;;;;;10.10;100.00;98381.66;5023098;28;20192;-75
2022/09/28 05:58:08;;;;;;;2.50;2.30;;;;;;;10.10;100.00;98386.81;5021014;28;20215;-75
2022/09/28 06:00:34;;;;;;;3.00;2.20;;;;;;;10.12;100.00;98391.91;5028172;28;20223;-75
2022/09/28 06:03:03;;;;;;;2.70;2.27;;;;;;;10.13;100.00;98393.59;5024407;28;20184;-75
2022/09/28 06:05:30;;;;;;;3.63;2.23;;;;;;;10.14;100.00;98392.69;5016807;28;20691;-75
2022/09/28 06:07:56;;;;;;;2.20;2.00;;;;;;;10.16;100.00;98391.72;5020878;28;20215;-75
2022/09/28 06:10:22;;;;;;;3.77;2.27;;;;;;;10.18;100.00;98399.44;5026351;28;20198;-76
2022/09/28 06:12:51;;;;;;;2.90;2.40;;;;;;;10.21;100.00;98396.72;5017144;28;20188;-75
2022/09/28 06:15:16;;;;;;;3.13;2.23;;;;;;;10.23;100.00;98402.69;5012682;28;20244;-75
2022/09/28 06:17:42;;;;;;;2.70;2.33;;;;;;;10.26;100.00;98399.97;5017280;28;20207;-75
2022/09/28 06:20:08;;;;;;;2.50;2.00;;;;;;;10.28;100.00;98403.34;5011063;28;20226;-75
2022/09/28 06:22:34;;;;;;;3.67;2.20;;;;;;;10.30;100.00;98404.16;5028754;28;20206;-75
2022/09/28 06:24:59;;;;;;;2.70;1.83;;;;;;;10.31;100.00;98399.81;5025657;28;20203;-75
2022/09/28 06:27:24;;;;;;;2.30;1.70;;;;;;;10.30;100.00;98398.97;5028612;28;20286;-75
2022/09/28 06:29:50;;;;;;;2.77;1.50;;;;;;;10.29;100.00;98412.81;5024725;28;20222;-75
2022/09/28 06:32:15;;;;;;;1.80;1.40;;;;;;;10.28;100.00;98402.53;5023149;28;20735;-75
2022/09/28 06:34:40;;;;;;;2.37;1.63;;;;;;;10.27;100.00;98400.84;5027418;28;20194;-75
2022/09/28 06:37:06;;;;;;;2.13;1.50;;;;;;;10.28;100.00;98405.94;5018614;28;20211;-76
2022/09/28 06:39:31;;;;;;;2.70;1.60;;;;;;;10.30;100.00;98411.03;5029979;28;20211;-76
2022/09/28 06:41:57;;;;;;;3.90;1.73;;;;;;;10.33;100.00;98411.78;5030143;28;20184;-75
2022/09/28 06:44:24;;;;;;;2.80;1.77;;;;;;;10.37;100.00;98404.75;5019607;28;20201;-75
2022/09/28 06:46:49;;;;;;;3.03;1.67;;;;;;;10.40;100.00;98412.44;5027446;28;20292;-75
2022/09/28 06:49:15;;;;;;;3.07;1.50;;;;;;;10.45;100.00;98417.41;5029902;28;20183;-75
2022/09/28 06:51:40;;;;;;;4.20;3.40;;;;;;;10.48;100.00;98417.31;5027516;28;20388;-74
2022/09/28 06:54:05;;;;;;;6.10;4.20;;;;;;;10.50;100.00;98415.50;5026334;28;20195;-74
2022/09/28 06:56:30;;;;;;;4.97;3.57;;;;;;;10.51;100.00;98427.53;5022080;28;20213;-75
2022/09/28 06:58:56;;;;;;;5.37;2.63;;;;;;;10.53;100.00;98433.47;5028741;28;20269;-75
2022/09/28 07:01:21;;;;;;;4.03;2.33;;;;;;;10.55;100.00;98434.25;5022740;28;20198;-75
2022/09/28 07:03:46;;;;;;;2.70;2.10;;;;;;;10.57;100.00;98441.97;5029160;28;20252;-75
2022/09/28 07:06:12;;;;;;;3.10;1.93;;;;;;;10.59;100.00;98446.19;5012985;28;20299;-75
2022/09/28 07:08:37;;;;;;;3.63;2.33;;;;;;;10.68;100.00;98457.91;5021371;28;20211;-75
2022/09/28 07:11:07;;;;;;;3.93;2.03;;;;;;;10.75;100.00;98454.16;5027195;28;20267;-75
2022/09/28 07:13:32;;;;;;;4.17;1.93;;;;;;;10.87;100.00;98449.44;5017896;28;20831;-75
2022/09/28 07:15:58;;;;;;;2.63;1.77;;;;;;;10.98;100.00;98466.19;5019218;28;20188;-75
2022/09/28 07:18:25;;;;;;;4.33;1.80;;;;;;;11.09;100.00;98463.19;5009325;28;20250;-75
2022/09/28 07:20:50;;;;;;;3.03;1.90;;;;;;;11.22;100.00;98468.72;5020856;28;20638;-75
2022/09/28 07:23:17;;;;;;;3.70;2.03;;;;;;;11.32;100.00;98474.38;5022863;28;20279;-76
2022/09/28 07:25:44;;;;;;;5.47;2.20;;;;;;;11.36;100.00;98477.66;5018408;28;20191;-75
2022/09/28 07:28:10;;;;;;;4.37;2.33;;;;;;;11.32;100.00;98476.09;5022665;28;20216;-75
2022/09/28 07:30:36;;;;;;;5.03;3.30;;;;;;;11.25;100.00;98485.88;5017701;28;20201;-75
2022/09/28 07:33:05;;;;;;;6.07;2.90;;;;;;;11.18;100.00;98487.88;5026678;28;20187;-75
2022/09/28 07:35:31;;;;;;;5.03;2.80;;;;;;;11.12;100.00;98490.69;5012913;28;20281;-75
2022/09/28 07:38:03;;;;;;;4.07;2.47;;;;;;;11.09;100.00;98489.06;5015587;28;20693;-75
2022/09/28 07:43:19;;;;;;;5.53;2.87;;;;;;;11.12;100.00;98495.88;5019313;28;20238;-75
2022/09/28 07:45:44;;;;;;;4.27;2.70;;;;;;;11.11;100.00;98501.97;5017708;28;20196;-75
2022/09/28 07:48:10;;;;;;;4.07;2.50;;;;;;;11.10;100.00;98511.47;5030462;28;20195;-75
2022/09/28 07:50:35;;;;;;;3.43;2.40;;;;;;;11.11;100.00;98510.56;5021657;28;20198;-75
2022/09/28 07:53:00;;;;;;;3.77;2.27;;;;;;;11.14;100.00;98517.38;5024615;28;20307;-75
2022/09/28 07:55:26;;;;;;;2.40;2.07;;;;;;;11.17;100.00;98509.47;5020564;28;20189;-75
2022/09/28 07:58:01;;;;;;;4.73;2.80;;;;;;;11.22;100.00;98511.88;5021367;28;20295;-75
2022/09/28 08:00:31;;;;;;;2.50;2.10;;;;;;;11.30;100.00;98525.38;5028386;28;20187;-75
2022/09/28 08:03:01;;;;;;;2.63;2.00;;;;;;;11.39;100.00;98526.75;5024852;28;20204;-75
2022/09/28 08:05:31;;;;;;;3.90;2.13;;;;;;;11.48;100.00;98523.78;5015385;28;20239;-75
2022/09/28 08:07:57;;;;;;;3.33;2.00;;;;;;;11.59;100.00;98529.34;5018390;28;20762;-75
2022/09/28 08:10:23;;;;;;;3.40;2.03;;;;;;;11.72;100.00;98536.63;5024273;28;20202;-75
2022/09/28 08:12:53;;;;;;;3.73;2.17;;;;;;;11.87;100.00;98533.38;5019128;28;20211;-75
2022/09/28 08:15:20;;;;;;;3.13;2.30;;;;;;;12.01;100.00;98529.41;5023119;28;20262;-75
2022/09/28 08:17:48;;;;;;;3.33;2.37;;;;;;;12.16;100.00;98538.25;5024955;28;20219;-75
2022/09/28 08:23:04;;;;;;;3.50;2.27;;;;;;;12.43;100.00;98550.91;5020924;28;20208;-75
2022/09/28 08:25:29;;;;;;;5.50;3.00;;;;;;;12.51;100.00;98556.63;5022478;28;20191;-75
2022/09/28 08:27:55;;;;;;;6.10;2.80;;;;;;;12.57;100.00;98552.91;5022857;28;20591;-75
2022/09/28 08:30:20;;;;;;;5.70;2.63;;;;;;;12.71;100.00;98557.44;5027257;28;20195;-75
2022/09/28 08:32:49;;;;;;;4.33;2.60;;;;;;;12.81;100.00;98554.38;5026328;28;20193;-75
2022/09/28 08:35:15;;;;;;;3.43;2.40;;;;;;;12.93;100.00;98565.13;5019761;28;20239;-75
2022/09/28 08:37:40;;;;;;;4.83;3.07;;;;;;;13.01;100.00;98563.00;5009598;28;20649;-76
2022/09/28 08:40:19;;;;;;;4.10;2.23;;;;;;;13.07;100.00;98564.47;5013137;28;20193;-75
2022/09/28 08:42:44;;;;;;;4.13;2.50;;;;;;;13.11;100.00;98563.41;5026978;28;20192;-75
2022/09/28 08:45:20;;;;;;;3.00;2.13;;;;;;;13.16;100.00;98565.78;5021761;28;20703;-76
2022/09/28 08:51:05;;;;;;;3.80;2.20;;;;;;;13.21;100.00;98572.44;5024314;28;20280;-75
2022/09/28 08:53:33;;;;;;;5.50;2.60;;;;;;;13.23;100.00;98562.81;5011951;28;20197;-75
2022/09/28 08:56:03;;;;;;;2.60;2.07;;;;;;;13.23;100.00;98567.19;5020560;28;20200;-75
2022/09/28 08:58:34;;;;;;;5.00;2.67;;;;;;;13.23;100.00;98570.63;5025723;28;20217;-75
2022/09/28 09:01:01;;;;;;;3.53;2.43;;;;;;;13.26;100.00;98578.28;5020990;28;20225;-75
2022/09/28 09:03:32;;;;;;;5.30;2.73;;;;;;;13.29;100.00;98566.06;5016456;28;20741;-76
2022/09/28 09:06:26;;;;;;;4.13;2.47;;;;;;;13.29;100.00;98574.66;5017744;28;20184;-76
2022/09/28 09:09:09;;;;;;;4.57;2.60;;;;;;;13.30;100.00;98588.53;5024684;28;20182;-76
2022/09/28 09:11:48;;;;;;;3.67;2.17;;;;;;;13.26;100.00;98582.59;5018679;28;20213;-75
2022/09/28 09:14:26;;;;;;;4.20;2.53;;;;;;;13.26;100.00;98587.81;5020873;28;20199;-76
2022/09/28 09:16:59;;;;;;;2.93;1.90;;;;;;;13.23;100.00;98591.41;5018557;28;20300;-75
2022/09/28 09:19:36;;;;;;;3.67;2.03;;;;;;;13.22;100.00;98592.31;5025574;28;20265;-75
2022/09/28 09:22:29;;;;;;;3.00;2.10;;;;;;;13.24;100.00;98598.28;5022482;28;20190;-75
2022/09/28 09:25:24;;;;;;;4.80;2.30;;;;;;;13.24;100.00;98605.22;5015170;28;20195;-75
2022/09/28 09:28:26;;;;;;;2.83;2.00;;;;;;;13.20;100.00;98595.91;5019551;28;20213;-75
2022/09/28 09:31:15;;;;;;;4.33;2.60;;;;;;;13.19;100.00;98595.03;5009533;28;20657;-75
2022/09/28 09:33:51;;;;;;;3.10;2.20;;;;;;;13.23;100.00;98595.75;5019456;28;20281;-75
2022/09/28 09:36:22;;;;;;;3.23;2.33;;;;;;;13.26;100.00;98600.78;5025270;28;20594;-75
2022/09/28 09:39:12;;;;;;;3.27;2.03;;;;;;;13.31;100.00;98601.44;5026006;28;20349;-75
2022/09/28 09:41:59;;;;;;;4.50;2.53;;;;;;;13.34;100.00;98603.03;5025562;28;20194;-76
2022/09/28 09:44:43;;;;;;;3.93;2.03;;;;;;;13.37;100.00;98600.28;5018386;28;20282;-75
2022/09/28 09:47:18;;;;;;;3.40;1.93;;;;;;;13.50;100.00;98603.19;5012464;28;20241;-75
2022/09/28 09:49:54;;;;;;;4.27;1.73;;;;;;;13.69;100.00;98608.31;5015920;28;20192;-76
2022/09/28 09:52:22;;;;;;;3.70;1.70;;;;;;;13.90;100.00;98610.78;5029440;28;20629;-75
2022/09/28 09:54:48;;;;;;;4.23;2.33;;;;;;;14.10;100.00;98608.03;5027098;28;20187;-75
2022/09/28 09:57:31;;;;;;;5.27;2.40;;;;;;;14.32;100.00;98610.38;5046121;28;20207;-75
2022/09/28 09:59:59;;;;;;;7.70;2.40;;;;;;;14.47;100.00;98615.69;5031274;28;20200;-75
2022/09/28 10:02:31;;;;;;;4.77;2.00;;;;;;;14.59;100.00;98619.44;5046351;28;20183;-75
2022/09/28 10:05:03;;;;;;;2.70;1.87;;;;;;;14.64;100.00;98607.03;5048317;28;20212;-76
2022/09/28 10:07:38;;;;;;;4.63;1.83;;;;;;;14.72;100.00;98610.09;5043844;28;20371;-75
2022/09/28 10:10:30;;;;;;;3.40;1.73;;;;;;;14.81;100.00;98613.97;5045175;28;20181;-76
2022/09/28 10:12:56;;;;;;;3.47;1.73;;;;;;;14.78;100.00;98607.16;5012971;28;20187;-75
2022/09/28 10:15:27;;;;;;;2.57;1.80;;;;;;;14.84;100.00;98612.94;5042847;28;20206;-74
2022/09/28 10:17:55;;;;;;;3.00;1.80;;;;;;;14.86;100.00;98606.75;5039627;28;20207;-75
2022/09/28 10:20:21;;;;;;;4.00;2.00;;;;;;;14.91;100.00;98614.31;5035094;28;20244;-76
2022/09/28 10:22:49;;;;;;;3.37;2.10;;;;;;;14.84;100.00;98603.38;5026212;28;20214;-75
2022/09/28 10:25:16;;;;;;;3.37;2.20;;;;;;;14.77;100.00;98607.22;5025778;28;21214;-75
2022/09/28 10:27:44;;;;;;;3.20;2.10;;;;;;;14.72;100.00;98606.66;5022559;28;20565;-76
2022/09/28 10:30:10;;;;;;;3.13;1.90;;;;;;;14.72;100.00;98604.88;5014966;28;20199;-75
2022/09/28 10:32:43;;;;;;;3.30;1.77;;;;;;;14.72;100.00;98609.25;5026996;28;20667;-74
2022/09/28 10:35:15;;;;;;;2.93;1.83;;;;;;;14.80;100.00;98607.06;5021267;28;20196;-75
2022/09/28 10:38:02;;;;;;;3.13;1.80;;;;;;;14.86;100.00;98605.91;5023581;28;20284;-75
2022/09/28 10:40:46;;;;;;;2.67;1.63;;;;;;;14.99;100.00;98609.53;5021862;28;20487;-75
2022/09/28 10:43:35;;;;;;;4.63;1.73;;;;;;;15.11;100.00;98600.19;4440523;28;23333;-72
2022/09/28 10:46:28;;;;;;;3.30;1.90;;;;;;;15.24;100.00;98601.22;3372063;28;24155;-72
2022/09/28 10:49:54;;;;;;;3.57;2.03;;;;;;;15.22;100.00;98610.88;3394147;28;22686;-72
2022/09/28 10:52:49;;;;;;;3.77;2.60;;;;;;;15.23;100.00;98601.31;3432665;28;24049;-72
2022/09/28 10:55:22;;;;;;;4.23;1.90;;;;;;;15.21;100.00;98605.75;3388903;28;23017;-76
2022/09/28 10:57:48;;;;;;;2.87;1.97;;;;;;;15.22;100.00;98613.47;3606803;28;20268;-72
2022/09/28 11:00:41;;;;;;;2.27;1.70;;;;;;;15.20;100.00;98602.28;4983517;28;20677;-77
2022/09/28 11:03:22;;;;;;;3.50;1.90;;;;;;;15.28;100.00;98601.03;4977998;28;20669;-75
2022/09/28 11:06:01;;;;;;;2.77;1.60;;;;;;;15.35;100.00;98597.19;4970478;28;20545;-75
2022/09/28 11:08:30;;;;;;;2.10;1.50;;;;;;;15.34;100.00;98595.50;4985890;28;20520;-75
2022/09/28 11:11:11;;;;;;;2.83;1.60;;;;;;;15.32;99.81;98603.38;4989516;28;20708;-74
2022/09/28 11:13:39;;;;;;;2.43;1.53;;;;;;;15.27;99.80;98596.75;4988661;28;20200;-75
2022/09/28 11:16:04;;;;;;;2.97;1.60;;;;;;;15.21;100.00;98593.56;4991188;28;20224;-76
2022/09/28 11:18:32;;;;;;;3.53;1.57;;;;;;;15.15;99.34;98601.72;4990013;28;20427;-75
2022/09/28 11:21:16;;;;;;;4.00;1.70;;;;;;;15.03;98.11;98598.03;4973476;28;20200;-75
2022/09/28 11:23:55;;;;;;;2.60;1.50;;;;;;;14.97;97.24;98598.38;4981193;28;20676;-76
2022/09/28 11:26:21;;;;;;;3.27;1.70;;;;;;;14.98;97.75;98596.59;4985263;28;20205;-75
2022/09/28 11:28:51;;;;;;;2.83;1.60;;;;;;;15.02;97.91;98600.72;4985056;28;20288;-75
2022/09/28 11:31:25;;;;;;;2.43;1.33;;;;;;;15.08;97.46;98593.41;4977226;28;20193;-75
2022/09/28 11:34:02;;;;;;;2.60;1.53;;;;;;;15.13;97.16;98593.16;4977573;28;20689;-75
2022/09/28 11:36:37;;;;;;;1.97;1.20;;;;;;;15.21;97.05;98590.13;4979946;28;20224;-75
2022/09/28 11:39:30;;;;;;;2.87;1.40;;;;;;;15.24;96.42;98588.19;4983807;28;20216;-74
2022/09/28 11:42:22;;;;;;;2.57;1.60;;;;;;;15.33;95.84;98580.78;4978168;28;20190;-74
2022/09/28 11:44:50;;;;;;;3.03;1.97;;;;;;;15.44;93.87;98582.78;4988258;28;20279;-75
2022/09/28 11:47:18;;;;;;;2.37;1.80;;;;;;;15.34;94.21;98577.25;4988812;28;20270;-75
2022/09/28 11:49:58;;;;;;;3.27;1.50;;;;;;;15.23;94.82;98585.66;4987031;28;20571;-75
2022/09/28 11:52:43;;;;;;;2.97;1.43;;;;;;;15.32;94.23;98582.53;4990830;28;20189;-75
2022/09/28 11:55:21;;;;;;;1.47;1.20;;;;;;;15.34;93.90;98575.47;4979779;28;20201;-75